sensor_id;sensor_type;location;lat;lon;timestamp;P1;durP1;ratioP1;P2;durP2;ratioP2
14272;SDS011;7220;49.450;11.052;2023-04-29T00:00:27;2.60;;;2.40;;
14272;SDS011;7220;49.450;11.052;2023-04-29T00:04:27;2.58;;;2.38;;
14272;SDS011;7220;49.450;11.052;2023-04-29T00:08:28;2.88;;;2.60;;
14272;SDS011;7220;49.450;11.052;2023-04-29T00:12:28;4.57;;;2.70;;
14272;SDS011;7220;49.450;11.052;2023-04-29T00:16:30;2.53;;;2.33;;
14272;SDS011;7220;49.450;11.052;2023-04-29T00:20:31;4.15;;;2.67;;
14272;SDS011;7220;49.450;11.052;2023-04-29T00:24:31;2.95;;;2.22;;
14272;SDS011;7220;49.450;11.052;2023-04-29T00:28:32;3.05;;;2.65;;
14272;SDS011;7220;49.450;11.052;2023-04-29T00:32:32;3.10;;;2.75;;
14272;SDS011;7220;49.450;11.052;2023-04-29T00:36:33;2.67;;;2.43;;
14272;SDS011;7220;49.450;11.052;2023-04-29T00:40:33;3.57;;;2.90;;
14272;SDS011;7220;49.450;11.052;2023-04-29T00:44:34;3.17;;;2.63;;
14272;SDS011;7220;49.450;11.052;2023-04-29T00:48:35;4.95;;;3.30;;
14272;SDS011;7220;49.450;11.052;2023-04-29T00:52:35;3.22;;;2.20;;
14272;SDS011;7220;49.450;11.052;2023-04-29T00:56:37;3.63;;;2.35;;
14272;SDS011;7220;49.450;11.052;2023-04-29T01:00:40;3.78;;;2.75;;
14272;SDS011;7220;49.450;11.052;2023-04-29T01:04:40;3.67;;;2.65;;
14272;SDS011;7220;49.450;11.052;2023-04-29T01:13:06;3.53;;;2.80;;
14272;SDS011;7220;49.450;11.052;2023-04-29T01:17:13;2.70;;;2.50;;
14272;SDS011;7220;49.450;11.052;2023-04-29T01:21:17;3.00;;;2.80;;
14272;SDS011;7220;49.450;11.052;2023-04-29T01:25:18;3.38;;;3.08;;
14272;SDS011;7220;49.450;11.052;2023-04-29T01:29:26;3.08;;;2.78;;
14272;SDS011;7220;49.450;11.052;2023-04-29T01:34:30;3.38;;;3.08;;
14272;SDS011;7220;49.450;11.052;2023-04-29T01:42:23;4.30;;;3.20;;
14272;SDS011;7220;49.450;11.052;2023-04-29T01:46:52;3.38;;;3.08;;
14272;SDS011;7220;49.450;11.052;2023-04-29T01:50:53;3.50;;;3.20;;
14272;SDS011;7220;49.450;11.052;2023-04-29T01:54:53;3.60;;;3.30;;
14272;SDS011;7220;49.450;11.052;2023-04-29T01:58:54;4.07;;;3.50;;
14272;SDS011;7220;49.450;11.052;2023-04-29T02:02:54;3.50;;;3.20;;
14272;SDS011;7220;49.450;11.052;2023-04-29T02:06:54;5.00;;;3.65;;
14272;SDS011;7220;49.450;11.052;2023-04-29T02:10:55;4.50;;;4.10;;
14272;SDS011;7220;49.450;11.052;2023-04-29T02:14:56;3.78;;;3.47;;
14272;SDS011;7220;49.450;11.052;2023-04-29T02:18:57;4.35;;;3.95;;
14272;SDS011;7220;49.450;11.052;2023-04-29T02:22:58;3.65;;;3.33;;
14272;SDS011;7220;49.450;11.052;2023-04-29T02:26:58;4.22;;;3.83;;
14272;SDS011;7220;49.450;11.052;2023-04-29T02:30:58;4.00;;;3.70;;
14272;SDS011;7220;49.450;11.052;2023-04-29T02:34:59;4.47;;;4.07;;
14272;SDS011;7220;49.450;11.052;2023-04-29T02:38:59;4.30;;;3.67;;
14272;SDS011;7220;49.450;11.052;2023-04-29T02:43:00;4.18;;;3.78;;
14272;SDS011;7220;49.450;11.052;2023-04-29T02:47:01;4.68;;;4.28;;
14272;SDS011;7220;49.450;11.052;2023-04-29T02:51:01;4.38;;;3.75;;
14272;SDS011;7220;49.450;11.052;2023-04-29T02:55:01;4.75;;;4.32;;
14272;SDS011;7220;49.450;11.052;2023-04-29T02:59:02;4.50;;;4.10;;
14272;SDS011;7220;49.450;11.052;2023-04-29T03:03:02;4.97;;;4.53;;
14272;SDS011;7220;49.450;11.052;2023-04-29T03:07:02;4.28;;;3.97;;
14272;SDS011;7220;49.450;11.052;2023-04-29T03:11:03;4.78;;;3.92;;
14272;SDS011;7220;49.450;11.052;2023-04-29T03:15:05;4.68;;;4.28;;
14272;SDS011;7220;49.450;11.052;2023-04-29T03:19:06;6.40;;;4.68;;
14272;SDS011;7220;49.450;11.052;2023-04-29T03:23:07;6.22;;;4.65;;
14272;SDS011;7220;49.450;11.052;2023-04-29T03:27:07;4.47;;;4.07;;
14272;SDS011;7220;49.450;11.052;2023-04-29T03:31:07;5.10;;;4.53;;
14272;SDS011;7220;49.450;11.052;2023-04-29T03:35:10;4.90;;;4.50;;
14272;SDS011;7220;49.450;11.052;2023-04-29T03:39:12;5.53;;;4.90;;
14272;SDS011;7220;49.450;11.052;2023-04-29T03:43:12;5.97;;;4.93;;
14272;SDS011;7220;49.450;11.052;2023-04-29T03:47:13;5.43;;;4.93;;
14272;SDS011;7220;49.450;11.052;2023-04-29T03:51:13;6.85;;;4.63;;
14272;SDS011;7220;49.450;11.052;2023-04-29T03:55:13;5.40;;;4.40;;
14272;SDS011;7220;49.450;11.052;2023-04-29T03:59:14;5.38;;;4.88;;
14272;SDS011;7220;49.450;11.052;2023-04-29T04:03:14;5.65;;;5.15;;
14272;SDS011;7220;49.450;11.052;2023-04-29T04:07:14;5.47;;;4.97;;
14272;SDS011;7220;49.450;11.052;2023-04-29T04:11:15;5.32;;;4.82;;
14272;SDS011;7220;49.450;11.052;2023-04-29T04:15:15;5.95;;;4.70;;
14272;SDS011;7220;49.450;11.052;2023-04-29T04:19:16;5.70;;;4.97;;
14272;SDS011;7220;49.450;11.052;2023-04-29T04:23:16;5.82;;;4.93;;
14272;SDS011;7220;49.450;11.052;2023-04-29T04:27:16;6.05;;;5.43;;
14272;SDS011;7220;49.450;11.052;2023-04-29T04:31:17;6.20;;;5.17;;
14272;SDS011;7220;49.450;11.052;2023-04-29T04:35:17;6.72;;;5.43;;
14272;SDS011;7220;49.450;11.052;2023-04-29T04:39:17;7.38;;;5.03;;
14272;SDS011;7220;49.450;11.052;2023-04-29T04:43:18;7.05;;;6.35;;
14272;SDS011;7220;49.450;11.052;2023-04-29T04:47:18;6.35;;;5.75;;
14272;SDS011;7220;49.450;11.052;2023-04-29T04:51:18;6.72;;;6.13;;
14272;SDS011;7220;49.450;11.052;2023-04-29T04:55:20;7.95;;;6.68;;
14272;SDS011;7220;49.450;11.052;2023-04-29T04:59:20;8.00;;;7.20;;
14272;SDS011;7220;49.450;11.052;2023-04-29T05:03:20;8.35;;;7.55;;
14272;SDS011;7220;49.450;11.052;2023-04-29T05:07:21;8.43;;;7.63;;
14272;SDS011;7220;49.450;11.052;2023-04-29T05:11:21;8.90;;;8.00;;
14272;SDS011;7220;49.450;11.052;2023-04-29T05:15:21;9.00;;;8.10;;
14272;SDS011;7220;49.450;11.052;2023-04-29T05:19:22;12.10;;;7.80;;
14272;SDS011;7220;49.450;11.052;2023-04-29T05:23:22;11.63;;;8.70;;
14272;SDS011;7220;49.450;11.052;2023-04-29T05:27:22;9.30;;;8.00;;
14272;SDS011;7220;49.450;11.052;2023-04-29T05:31:23;8.52;;;7.72;;
14272;SDS011;7220;49.450;11.052;2023-04-29T05:35:24;9.63;;;7.43;;
14272;SDS011;7220;49.450;11.052;2023-04-29T05:39:25;10.07;;;8.25;;
14272;SDS011;7220;49.450;11.052;2023-04-29T05:43:25;9.32;;;6.80;;
14272;SDS011;7220;49.450;11.052;2023-04-29T05:47:26;8.63;;;7.32;;
14272;SDS011;7220;49.450;11.052;2023-04-29T05:51:26;8.02;;;6.97;;
14272;SDS011;7220;49.450;11.052;2023-04-29T05:55:27;8.15;;;7.45;;
14272;SDS011;7220;49.450;11.052;2023-04-29T05:59:30;9.88;;;7.60;;
14272;SDS011;7220;49.450;11.052;2023-04-29T06:03:31;11.20;;;7.40;;
14272;SDS011;7220;49.450;11.052;2023-04-29T06:07:31;7.68;;;6.97;;
14272;SDS011;7220;49.450;11.052;2023-04-29T06:11:32;7.82;;;6.88;;
14272;SDS011;7220;49.450;11.052;2023-04-29T06:15:32;7.45;;;6.68;;
14272;SDS011;7220;49.450;11.052;2023-04-29T06:19:33;8.02;;;6.80;;
14272;SDS011;7220;49.450;11.052;2023-04-29T06:23:33;8.75;;;6.65;;
14272;SDS011;7220;49.450;11.052;2023-04-29T06:27:33;7.30;;;6.60;;
14272;SDS011;7220;49.450;11.052;2023-04-29T06:31:34;7.15;;;6.45;;
14272;SDS011;7220;49.450;11.052;2023-04-29T06:35:37;8.30;;;7.40;;
14272;SDS011;7220;49.450;11.052;2023-04-29T06:39:38;8.57;;;7.20;;
14272;SDS011;7220;49.450;11.052;2023-04-29T06:43:38;9.32;;;8.38;;
14272;SDS011;7220;49.450;11.052;2023-04-29T06:47:39;9.65;;;8.25;;
14272;SDS011;7220;49.450;11.052;2023-04-29T06:51:40;8.63;;;7.45;;
14272;SDS011;7220;49.450;11.052;2023-04-29T06:55:41;9.15;;;7.65;;
14272;SDS011;7220;49.450;11.052;2023-04-29T06:59:42;8.55;;;7.75;;
14272;SDS011;7220;49.450;11.052;2023-04-29T07:03:42;8.57;;;7.55;;
14272;SDS011;7220;49.450;11.052;2023-04-29T07:07:42;9.07;;;8.27;;
14272;SDS011;7220;49.450;11.052;2023-04-29T07:11:42;7.60;;;6.90;;
14272;SDS011;7220;49.450;11.052;2023-04-29T07:15:43;8.07;;;7.27;;
14272;SDS011;7220;49.450;11.052;2023-04-29T07:19:43;8.10;;;7.30;;
14272;SDS011;7220;49.450;11.052;2023-04-29T07:23:43;8.38;;;7.38;;
14272;SDS011;7220;49.450;11.052;2023-04-29T07:27:44;7.93;;;7.17;;
14272;SDS011;7220;49.450;11.052;2023-04-29T07:31:44;7.67;;;6.97;;
14272;SDS011;7220;49.450;11.052;2023-04-29T07:35:44;7.35;;;6.63;;
14272;SDS011;7220;49.450;11.052;2023-04-29T07:39:45;6.80;;;6.13;;
14272;SDS011;7220;49.450;11.052;2023-04-29T07:43:45;6.87;;;6.03;;
14272;SDS011;7220;49.450;11.052;2023-04-29T07:47:45;7.03;;;6.32;;
14272;SDS011;7220;49.450;11.052;2023-04-29T07:51:45;8.25;;;7.45;;
14272;SDS011;7220;49.450;11.052;2023-04-29T07:55:46;8.70;;;6.63;;
14272;SDS011;7220;49.450;11.052;2023-04-29T07:59:49;7.43;;;6.75;;
14272;SDS011;7220;49.450;11.052;2023-04-29T08:03:51;9.38;;;7.65;;
14272;SDS011;7220;49.450;11.052;2023-04-29T08:07:52;9.80;;;7.55;;
14272;SDS011;7220;49.450;11.052;2023-04-29T08:11:52;8.18;;;7.43;;
14272;SDS011;7220;49.450;11.052;2023-04-29T08:15:52;9.75;;;7.28;;
14272;SDS011;7220;49.450;11.052;2023-04-29T08:19:53;8.52;;;7.60;;
14272;SDS011;7220;49.450;11.052;2023-04-29T08:23:53;9.45;;;8.32;;
14272;SDS011;7220;49.450;11.052;2023-04-29T08:27:54;9.32;;;8.38;;
14272;SDS011;7220;49.450;11.052;2023-04-29T08:31:55;10.40;;;9.35;;
14272;SDS011;7220;49.450;11.052;2023-04-29T08:35:58;10.70;;;9.52;;
14272;SDS011;7220;49.450;11.052;2023-04-29T08:39:59;11.27;;;8.90;;
14272;SDS011;7220;49.450;11.052;2023-04-29T08:44:00;8.77;;;7.88;;
14272;SDS011;7220;49.450;11.052;2023-04-29T08:48:04;8.50;;;7.10;;
14272;SDS011;7220;49.450;11.052;2023-04-29T08:52:06;7.75;;;6.97;;
14272;SDS011;7220;49.450;11.052;2023-04-29T08:56:15;7.47;;;6.88;;
14272;SDS011;7220;49.450;11.052;2023-04-29T09:00:20;8.02;;;7.07;;
14272;SDS011;7220;49.450;11.052;2023-04-29T09:05:22;7.57;;;6.25;;
14272;SDS011;7220;49.450;11.052;2023-04-29T09:08:59;6.53;;;5.88;;
14272;SDS011;7220;49.450;11.052;2023-04-29T09:13:02;7.03;;;6.25;;
14272;SDS011;7220;49.450;11.052;2023-04-29T09:17:02;6.67;;;6.03;;
14272;SDS011;7220;49.450;11.052;2023-04-29T09:21:16;7.05;;;6.38;;
14272;SDS011;7220;49.450;11.052;2023-04-29T09:25:21;6.82;;;6.22;;
14272;SDS011;7220;49.450;11.052;2023-04-29T09:29:22;6.57;;;5.97;;
14272;SDS011;7220;49.450;11.052;2023-04-29T09:33:22;6.90;;;6.30;;
14272;SDS011;7220;49.450;11.052;2023-04-29T09:37:27;7.13;;;6.43;;
14272;SDS011;7220;49.450;11.052;2023-04-29T09:41:27;6.85;;;6.15;;
14272;SDS011;7220;49.450;11.052;2023-04-29T09:45:35;7.03;;;6.43;;
14272;SDS011;7220;49.450;11.052;2023-04-29T09:49:40;8.18;;;7.00;;
14272;SDS011;7220;49.450;11.052;2023-04-29T09:53:44;7.53;;;6.82;;
14272;SDS011;7220;49.450;11.052;2023-04-29T09:57:44;6.72;;;6.13;;
14272;SDS011;7220;49.450;11.052;2023-04-29T10:01:48;6.68;;;6.10;;
14272;SDS011;7220;49.450;11.052;2023-04-29T10:05:50;6.95;;;6.13;;
14272;SDS011;7220;49.450;11.052;2023-04-29T10:09:51;6.25;;;5.65;;
14272;SDS011;7220;49.450;11.052;2023-04-29T10:13:52;7.03;;;6.32;;
14272;SDS011;7220;49.450;11.052;2023-04-29T10:17:54;6.37;;;5.63;;
14272;SDS011;7220;49.450;11.052;2023-04-29T10:21:59;5.93;;;5.43;;
14272;SDS011;7220;49.450;11.052;2023-04-29T10:26:07;6.38;;;5.38;;
14272;SDS011;7220;49.450;11.052;2023-04-29T10:30:13;6.80;;;6.20;;
14272;SDS011;7220;49.450;11.052;2023-04-29T10:34:15;6.28;;;5.28;;
14272;SDS011;7220;49.450;11.052;2023-04-29T10:38:22;6.50;;;5.95;;
14272;SDS011;7220;49.450;11.052;2023-04-29T10:42:49;6.93;;;6.18;;
14272;SDS011;7220;49.450;11.052;2023-04-29T10:46:50;6.25;;;5.55;;
14272;SDS011;7220;49.450;11.052;2023-04-29T10:55:42;6.32;;;5.70;;
14272;SDS011;7220;49.450;11.052;2023-04-29T10:59:46;7.57;;;6.85;;
14272;SDS011;7220;49.450;11.052;2023-04-29T11:07:48;7.93;;;6.07;;
14272;SDS011;7220;49.450;11.052;2023-04-29T11:12:12;6.57;;;5.97;;
14272;SDS011;7220;49.450;11.052;2023-04-29T11:16:24;6.93;;;6.32;;
14272;SDS011;7220;49.450;11.052;2023-04-29T11:20:28;6.50;;;5.90;;
14272;SDS011;7220;49.450;11.052;2023-04-29T11:24:28;6.88;;;6.13;;
14272;SDS011;7220;49.450;11.052;2023-04-29T11:28:30;6.10;;;5.57;;
14272;SDS011;7220;49.450;11.052;2023-04-29T11:32:31;6.60;;;6.00;;
14272;SDS011;7220;49.450;11.052;2023-04-29T11:36:34;6.25;;;5.53;;
14272;SDS011;7220;49.450;11.052;2023-04-29T11:40:35;7.82;;;6.47;;
14272;SDS011;7220;49.450;11.052;2023-04-29T11:44:50;6.95;;;5.57;;
14272;SDS011;7220;49.450;11.052;2023-04-29T11:48:52;7.00;;;5.43;;
14272;SDS011;7220;49.450;11.052;2023-04-29T11:52:52;6.68;;;5.63;;
14272;SDS011;7220;49.450;11.052;2023-04-29T11:56:53;5.65;;;5.10;;
14272;SDS011;7220;49.450;11.052;2023-04-29T12:00:54;6.25;;;5.65;;
14272;SDS011;7220;49.450;11.052;2023-04-29T12:04:58;5.53;;;5.00;;
14272;SDS011;7220;49.450;11.052;2023-04-29T12:08:59;4.80;;;4.30;;
14272;SDS011;7220;49.450;11.052;2023-04-29T12:13:00;5.75;;;4.38;;
14272;SDS011;7220;49.450;11.052;2023-04-29T12:17:02;5.03;;;3.80;;
14272;SDS011;7220;49.450;11.052;2023-04-29T12:21:03;3.72;;;3.42;;
14272;SDS011;7220;49.450;11.052;2023-04-29T12:25:04;4.25;;;3.85;;
14272;SDS011;7220;49.450;11.052;2023-04-29T12:29:08;4.35;;;3.95;;
14272;SDS011;7220;49.450;11.052;2023-04-29T12:33:09;4.35;;;3.90;;
14272;SDS011;7220;49.450;11.052;2023-04-29T12:37:14;5.47;;;3.95;;
14272;SDS011;7220;49.450;11.052;2023-04-29T12:41:16;4.45;;;4.05;;
14272;SDS011;7220;49.450;11.052;2023-04-29T12:45:29;5.00;;;4.50;;
14272;SDS011;7220;49.450;11.052;2023-04-29T12:49:32;4.65;;;3.83;;
14272;SDS011;7220;49.450;11.052;2023-04-29T12:53:33;3.80;;;3.50;;
14272;SDS011;7220;49.450;11.052;2023-04-29T12:57:33;3.28;;;2.97;;
14272;SDS011;7220;49.450;11.052;2023-04-29T13:01:34;3.60;;;3.25;;
14272;SDS011;7220;49.450;11.052;2023-04-29T13:05:35;3.78;;;3.35;;
14272;SDS011;7220;49.450;11.052;2023-04-29T13:09:35;5.18;;;3.80;;
14272;SDS011;7220;49.450;11.052;2023-04-29T13:13:37;4.07;;;3.67;;
14272;SDS011;7220;49.450;11.052;2023-04-29T13:17:37;4.00;;;3.60;;
14272;SDS011;7220;49.450;11.052;2023-04-29T13:21:37;3.60;;;3.30;;
14272;SDS011;7220;49.450;11.052;2023-04-29T13:25:38;4.88;;;3.70;;
14272;SDS011;7220;49.450;11.052;2023-04-29T13:29:38;3.97;;;3.58;;
14272;SDS011;7220;49.450;11.052;2023-04-29T13:33:39;3.78;;;3.40;;
14272;SDS011;7220;49.450;11.052;2023-04-29T13:37:39;3.83;;;3.38;;
14272;SDS011;7220;49.450;11.052;2023-04-29T13:41:39;2.75;;;2.55;;
14272;SDS011;7220;49.450;11.052;2023-04-29T13:45:39;3.30;;;3.00;;
14272;SDS011;7220;49.450;11.052;2023-04-29T13:49:40;3.03;;;2.70;;
14272;SDS011;7220;49.450;11.052;2023-04-29T13:53:43;3.75;;;3.13;;
14272;SDS011;7220;49.450;11.052;2023-04-29T13:57:43;3.35;;;2.80;;
14272;SDS011;7220;49.450;11.052;2023-04-29T14:01:44;3.72;;;2.92;;
14272;SDS011;7220;49.450;11.052;2023-04-29T14:05:44;3.65;;;2.78;;
14272;SDS011;7220;49.450;11.052;2023-04-29T14:09:45;3.17;;;2.40;;
14272;SDS011;7220;49.450;11.052;2023-04-29T14:13:45;2.88;;;2.67;;
14272;SDS011;7220;49.450;11.052;2023-04-29T14:17:46;3.63;;;2.30;;
14272;SDS011;7220;49.450;11.052;2023-04-29T14:21:48;3.15;;;2.88;;
14272;SDS011;7220;49.450;11.052;2023-04-29T14:25:49;2.90;;;2.70;;
14272;SDS011;7220;49.450;11.052;2023-04-29T14:29:50;3.47;;;3.17;;
14272;SDS011;7220;49.450;11.052;2023-04-29T14:33:50;4.97;;;2.97;;
14272;SDS011;7220;49.450;11.052;2023-04-29T14:37:50;3.00;;;2.80;;
14272;SDS011;7220;49.450;11.052;2023-04-29T14:41:51;2.90;;;2.70;;
14272;SDS011;7220;49.450;11.052;2023-04-29T14:45:51;2.95;;;2.67;;
14272;SDS011;7220;49.450;11.052;2023-04-29T14:49:52;6.05;;;3.75;;
14272;SDS011;7220;49.450;11.052;2023-04-29T14:53:52;3.13;;;2.92;;
14272;SDS011;7220;49.450;11.052;2023-04-29T14:57:52;3.20;;;2.90;;
14272;SDS011;7220;49.450;11.052;2023-04-29T15:01:53;3.35;;;3.05;;
14272;SDS011;7220;49.450;11.052;2023-04-29T15:05:53;4.43;;;3.13;;
14272;SDS011;7220;49.450;11.052;2023-04-29T15:09:54;4.38;;;3.58;;
14272;SDS011;7220;49.450;11.052;2023-04-29T15:13:54;5.07;;;3.88;;
14272;SDS011;7220;49.450;11.052;2023-04-29T15:17:54;4.93;;;4.33;;
14272;SDS011;7220;49.450;11.052;2023-04-29T15:21:55;4.60;;;4.20;;
14272;SDS011;7220;49.450;11.052;2023-04-29T15:25:56;5.15;;;4.65;;
14272;SDS011;7220;49.450;11.052;2023-04-29T15:29:56;5.32;;;4.82;;
14272;SDS011;7220;49.450;11.052;2023-04-29T15:33:56;5.15;;;4.65;;
14272;SDS011;7220;49.450;11.052;2023-04-29T15:37:57;5.40;;;4.83;;
14272;SDS011;7220;49.450;11.052;2023-04-29T15:41:58;6.35;;;5.10;;
14272;SDS011;7220;49.450;11.052;2023-04-29T15:45:58;5.97;;;5.10;;
14272;SDS011;7220;49.450;11.052;2023-04-29T15:49:58;5.40;;;4.90;;
14272;SDS011;7220;49.450;11.052;2023-04-29T15:53:59;5.10;;;4.60;;
14272;SDS011;7220;49.450;11.052;2023-04-29T15:57:59;7.38;;;5.70;;
14272;SDS011;7220;49.450;11.052;2023-04-29T16:01:59;4.38;;;3.97;;
14272;SDS011;7220;49.450;11.052;2023-04-29T16:06:00;3.50;;;3.20;;
14272;SDS011;7220;49.450;11.052;2023-04-29T16:10:00;3.20;;;3.00;;
14272;SDS011;7220;49.450;11.052;2023-04-29T16:14:01;3.25;;;2.92;;
14272;SDS011;7220;49.450;11.052;2023-04-29T16:18:01;5.68;;;3.20;;
14272;SDS011;7220;49.450;11.052;2023-04-29T16:22:01;3.50;;;3.17;;
14272;SDS011;7220;49.450;11.052;2023-04-29T16:26:02;4.28;;;3.20;;
14272;SDS011;7220;49.450;11.052;2023-04-29T16:30:02;3.08;;;2.78;;
14272;SDS011;7220;49.450;11.052;2023-04-29T16:34:04;3.83;;;3.03;;
14272;SDS011;7220;49.450;11.052;2023-04-29T16:38:04;4.97;;;2.92;;
14272;SDS011;7220;49.450;11.052;2023-04-29T16:42:04;5.03;;;2.65;;
14272;SDS011;7220;49.450;11.052;2023-04-29T16:46:05;2.42;;;2.22;;
14272;SDS011;7220;49.450;11.052;2023-04-29T16:50:06;3.65;;;2.67;;
14272;SDS011;7220;49.450;11.052;2023-04-29T16:54:07;2.85;;;2.60;;
14272;SDS011;7220;49.450;11.052;2023-04-29T16:58:08;3.40;;;2.78;;
14272;SDS011;7220;49.450;11.052;2023-04-29T17:02:08;4.40;;;3.13;;
14272;SDS011;7220;49.450;11.052;2023-04-29T17:06:08;3.17;;;2.88;;
14272;SDS011;7220;49.450;11.052;2023-04-29T17:10:09;3.50;;;2.22;;
14272;SDS011;7220;49.450;11.052;2023-04-29T17:14:10;4.28;;;2.97;;
14272;SDS011;7220;49.450;11.052;2023-04-29T17:18:10;2.67;;;2.42;;
14272;SDS011;7220;49.450;11.052;2023-04-29T17:22:11;3.15;;;2.85;;
14272;SDS011;7220;49.450;11.052;2023-04-29T17:26:11;3.47;;;3.17;;
14272;SDS011;7220;49.450;11.052;2023-04-29T17:30:12;4.15;;;3.55;;
14272;SDS011;7220;49.450;11.052;2023-04-29T17:34:13;4.05;;;3.20;;
14272;SDS011;7220;49.450;11.052;2023-04-29T17:38:24;3.20;;;3.00;;
14272;SDS011;7220;49.450;11.052;2023-04-29T17:42:24;2.60;;;2.40;;
14272;SDS011;7220;49.450;11.052;2023-04-29T17:46:25;2.67;;;2.47;;
14272;SDS011;7220;49.450;11.052;2023-04-29T17:50:25;3.50;;;2.55;;
14272;SDS011;7220;49.450;11.052;2023-04-29T17:54:25;3.05;;;2.75;;
14272;SDS011;7220;49.450;11.052;2023-04-29T17:58:26;3.53;;;3.05;;
14272;SDS011;7220;49.450;11.052;2023-04-29T18:02:27;2.60;;;2.40;;
14272;SDS011;7220;49.450;11.052;2023-04-29T18:06:28;3.25;;;2.90;;
14272;SDS011;7220;49.450;11.052;2023-04-29T18:10:29;3.17;;;2.88;;
14272;SDS011;7220;49.450;11.052;2023-04-29T18:14:29;4.68;;;3.40;;
14272;SDS011;7220;49.450;11.052;2023-04-29T18:18:30;4.35;;;3.85;;
14272;SDS011;7220;49.450;11.052;2023-04-29T18:22:31;3.45;;;3.15;;
14272;SDS011;7220;49.450;11.052;2023-04-29T18:26:32;6.13;;;4.10;;
14272;SDS011;7220;49.450;11.052;2023-04-29T18:30:32;4.82;;;3.42;;
14272;SDS011;7220;49.450;11.052;2023-04-29T18:34:32;3.83;;;3.53;;
14272;SDS011;7220;49.450;11.052;2023-04-29T18:38:33;5.80;;;3.67;;
14272;SDS011;7220;49.450;11.052;2023-04-29T18:42:33;3.85;;;3.42;;
14272;SDS011;7220;49.450;11.052;2023-04-29T18:46:34;4.93;;;3.55;;
14272;SDS011;7220;49.450;11.052;2023-04-29T18:50:34;3.95;;;3.55;;
14272;SDS011;7220;49.450;11.052;2023-04-29T18:54:35;4.03;;;3.60;;
14272;SDS011;7220;49.450;11.052;2023-04-29T18:58:35;3.97;;;2.97;;
14272;SDS011;7220;49.450;11.052;2023-04-29T19:02:36;4.00;;;3.60;;
14272;SDS011;7220;49.450;11.052;2023-04-29T19:06:37;4.22;;;3.75;;
14272;SDS011;7220;49.450;11.052;2023-04-29T19:10:37;5.75;;;4.43;;
14272;SDS011;7220;49.450;11.052;2023-04-29T19:14:37;6.32;;;4.70;;
14272;SDS011;7220;49.450;11.052;2023-04-29T19:18:38;6.22;;;5.63;;
14272;SDS011;7220;49.450;11.052;2023-04-29T19:22:39;6.13;;;5.15;;
14272;SDS011;7220;49.450;11.052;2023-04-29T19:26:39;6.07;;;5.43;;
14272;SDS011;7220;49.450;11.052;2023-04-29T19:30:40;6.32;;;5.50;;
14272;SDS011;7220;49.450;11.052;2023-04-29T19:34:40;5.28;;;4.78;;
14272;SDS011;7220;49.450;11.052;2023-04-29T19:38:40;6.10;;;5.43;;
14272;SDS011;7220;49.450;11.052;2023-04-29T19:42:45;7.40;;;5.78;;
14272;SDS011;7220;49.450;11.052;2023-04-29T19:46:48;5.95;;;5.35;;
14272;SDS011;7220;49.450;11.052;2023-04-29T19:50:49;5.60;;;5.00;;
14272;SDS011;7220;49.450;11.052;2023-04-29T19:54:50;7.95;;;6.47;;
14272;SDS011;7220;49.450;11.052;2023-04-29T19:58:50;5.75;;;5.15;;
14272;SDS011;7220;49.450;11.052;2023-04-29T20:02:50;5.57;;;5.07;;
14272;SDS011;7220;49.450;11.052;2023-04-29T20:06:51;7.07;;;6.25;;
14272;SDS011;7220;49.450;11.052;2023-04-29T20:10:51;7.22;;;6.50;;
14272;SDS011;7220;49.450;11.052;2023-04-29T20:14:51;6.75;;;6.00;;
14272;SDS011;7220;49.450;11.052;2023-04-29T20:18:52;9.60;;;6.15;;
14272;SDS011;7220;49.450;11.052;2023-04-29T20:22:52;6.25;;;5.65;;
14272;SDS011;7220;49.450;11.052;2023-04-29T20:26:56;7.20;;;5.55;;
14272;SDS011;7220;49.450;11.052;2023-04-29T20:31:00;8.73;;;6.43;;
14272;SDS011;7220;49.450;11.052;2023-04-29T20:35:00;6.22;;;5.40;;
14272;SDS011;7220;49.450;11.052;2023-04-29T20:39:00;7.03;;;5.68;;
14272;SDS011;7220;49.450;11.052;2023-04-29T20:43:01;6.65;;;5.90;;
14272;SDS011;7220;49.450;11.052;2023-04-29T20:47:01;6.25;;;5.65;;
14272;SDS011;7220;49.450;11.052;2023-04-29T20:51:02;6.30;;;5.70;;
14272;SDS011;7220;49.450;11.052;2023-04-29T20:55:03;6.57;;;5.75;;
14272;SDS011;7220;49.450;11.052;2023-04-29T20:59:03;6.93;;;6.22;;
14272;SDS011;7220;49.450;11.052;2023-04-29T21:03:04;8.13;;;6.53;;
14272;SDS011;7220;49.450;11.052;2023-04-29T21:07:04;7.43;;;6.13;;
14272;SDS011;7220;49.450;11.052;2023-04-29T21:11:06;5.90;;;5.28;;
14272;SDS011;7220;49.450;11.052;2023-04-29T21:15:09;8.30;;;6.78;;
14272;SDS011;7220;49.450;11.052;2023-04-29T21:19:10;7.40;;;6.13;;
14272;SDS011;7220;49.450;11.052;2023-04-29T21:23:10;6.25;;;5.65;;
14272;SDS011;7220;49.450;11.052;2023-04-29T21:27:10;6.40;;;5.80;;
14272;SDS011;7220;49.450;11.052;2023-04-29T21:31:11;6.55;;;5.60;;
14272;SDS011;7220;49.450;11.052;2023-04-29T21:35:15;7.68;;;6.55;;
14272;SDS011;7220;49.450;11.052;2023-04-29T21:39:15;6.80;;;6.10;;
14272;SDS011;7220;49.450;11.052;2023-04-29T21:43:16;7.03;;;6.32;;
14272;SDS011;7220;49.450;11.052;2023-04-29T21:47:17;6.13;;;5.60;;
14272;SDS011;7220;49.450;11.052;2023-04-29T21:51:17;7.30;;;6.10;;
14272;SDS011;7220;49.450;11.052;2023-04-29T21:55:18;6.70;;;6.00;;
14272;SDS011;7220;49.450;11.052;2023-04-29T21:59:19;7.28;;;6.30;;
14272;SDS011;7220;49.450;11.052;2023-04-29T22:03:19;10.02;;;7.18;;
14272;SDS011;7220;49.450;11.052;2023-04-29T22:07:20;6.65;;;6.05;;
14272;SDS011;7220;49.450;11.052;2023-04-29T22:11:21;7.03;;;6.32;;
14272;SDS011;7220;49.450;11.052;2023-04-29T22:15:22;7.00;;;6.30;;
14272;SDS011;7220;49.450;11.052;2023-04-29T22:19:22;7.03;;;6.32;;
14272;SDS011;7220;49.450;11.052;2023-04-29T22:23:23;6.95;;;6.25;;
14272;SDS011;7220;49.450;11.052;2023-04-29T22:27:23;7.70;;;5.70;;
14272;SDS011;7220;49.450;11.052;2023-04-29T22:31:23;5.50;;;5.00;;
14272;SDS011;7220;49.450;11.052;2023-04-29T22:35:24;6.47;;;5.88;;
14272;SDS011;7220;49.450;11.052;2023-04-29T22:39:24;7.72;;;6.20;;
14272;SDS011;7220;49.450;11.052;2023-04-29T22:43:25;6.85;;;5.75;;
14272;SDS011;7220;49.450;11.052;2023-04-29T22:47:25;7.30;;;6.23;;
14272;SDS011;7220;49.450;11.052;2023-04-29T22:51:25;7.07;;;6.38;;
14272;SDS011;7220;49.450;11.052;2023-04-29T22:55:25;7.78;;;6.85;;
14272;SDS011;7220;49.450;11.052;2023-04-29T22:59:26;7.78;;;6.97;;
14272;SDS011;7220;49.450;11.052;2023-04-29T23:03:26;7.50;;;6.68;;
14272;SDS011;7220;49.450;11.052;2023-04-29T23:07:27;7.50;;;6.80;;
14272;SDS011;7220;49.450;11.052;2023-04-29T23:11:27;6.40;;;5.75;;
14272;SDS011;7220;49.450;11.052;2023-04-29T23:15:28;8.73;;;6.72;;
14272;SDS011;7220;49.450;11.052;2023-04-29T23:19:29;7.72;;;7.03;;
14272;SDS011;7220;49.450;11.052;2023-04-29T23:23:29;7.32;;;6.55;;
14272;SDS011;7220;49.450;11.052;2023-04-29T23:27:30;6.88;;;6.20;;
14272;SDS011;7220;49.450;11.052;2023-04-29T23:31:30;8.52;;;6.72;;
14272;SDS011;7220;49.450;11.052;2023-04-29T23:35:30;7.05;;;6.45;;
14272;SDS011;7220;49.450;11.052;2023-04-29T23:39:31;7.65;;;6.95;;
14272;SDS011;7220;49.450;11.052;2023-04-29T23:43:31;9.60;;;7.50;;
14272;SDS011;7220;49.450;11.052;2023-04-29T23:47:32;8.10;;;7.30;;
14272;SDS011;7220;49.450;11.052;2023-04-29T23:51:32;7.80;;;7.00;;
14272;SDS011;7220;49.450;11.052;2023-04-29T23:55:33;7.88;;;7.07;;
14272;SDS011;7220;49.450;11.052;2023-04-29T23:59:33;8.15;;;7.38;;
